Nearby METAR Reports

 

KORH - Worcester, Massachusetts, USA
Distance from station: NW 4mi, 7km
Updated: Tue, 20-Aug-2019 11:54am EDT
Clear
Clear
 Wind from calm
Wind: Calm
Temperature: 79°F , 26°C
Dew Point: 57°F , 14°C
Humidity: 48%
Barometer: 30.12 inHg , 1020 hPa
Clouds: Clear
Visibility: 10 miles , 16 km
2019/08/20 15:54 KORH 201554Z 00000KT 10SM CLR 26/14 A3012 RMK AO2 SLP193 T02610139
KBOS - Boston, Massachusetts, USA
Distance from station: ENE 42mi, 68km
Updated: Tue, 20-Aug-2019 11:54am EDT
Few Clouds
Few Clouds
 Wind from ESE
Wind: ESE 8 mph , 13 km/h
Temperature: 82°F , 28°C
Heat Index: 82°F , 28°C
Dew Point: 61°F , 16°C
Humidity: 48%
Barometer: 30.07 inHg , 1018.3 hPa
Clouds: Few Clouds
Visibility: 10 miles , 16 km
Cloud details: Few Clouds 25000 ft
2019/08/20 15:54 KBOS 201554Z 12007KT 10SM FEW250 28/16 A3007 RMK AO2 SLP181 T02780161
 
KCQX - Chatham, Massachusetts, USA
Distance from station: SE 102mi, 164km
Updated: Tue, 20-Aug-2019 11:52am EDT
Clear
Clear
 Wind from varies
Wind: varies 3 mph , 6 km/h
Temperature: 82°F , 28°C
Heat Index: 84°F , 29°C
Dew Point: 64°F , 18°C
Humidity: 55%
Barometer: 30.07 inHg , 1018.3 hPa
Clouds: Clear
Visibility: 10 miles , 16 km
2019/08/20 15:52 KCQX 201552Z AUTO VRB03KT 10SM CLR 28/18 A3007 RMK AO2 SLP184 T02780183
KMVY - Marthas Vineyard, Massachusetts, USA
Distance from station: SE 84mi, 135km
Updated: Tue, 20-Aug-2019 11:53am EDT
Clear
Clear
 Wind from varies
Wind: varies 5 mph , 7 km/h
Temperature: 82°F , 28°C
Heat Index: 82°F , 28°C
Dew Point: 61°F , 16°C
Humidity: 48%
Barometer: 30.07 inHg , 1018.3 hPa
Clouds: Clear
Visibility: 10 miles , 16 km
2019/08/20 15:53 KMVY 201553Z VRB04KT 10SM CLR 28/16 A3007 RMK AO2 SLP181 T02830161
 
KPVC - Provincetown, Massachusetts, USA
Distance from station: NNW 85mi, 136km
Updated: Tue, 20-Aug-2019 11:56am EDT
Clear
Clear
 Wind from NNW
Wind: NNW 9 mph , 15 km/h
Temperature: 75°F , 24°C
Dew Point: 64°F , 18°C
Humidity: 69%
Barometer: 30.08 inHg , 1018.6 hPa
Clouds: Clear
Visibility: 10 miles , 16 km
2019/08/20 15:56 KPVC 201556Z AUTO 34008KT 10SM CLR 24/18 A3008 RMK AO2 SLP185 T02390183 PNO $
KAQW - Savoy, Massachusetts, USA
Distance from station: NNW 66mi, 106km
Updated: Tue, 20-Aug-2019 11:52am EDT
Clear
Clear
 Wind from calm
Wind: Calm
Temperature: 79°F , 26°C
Dew Point: 57°F , 14°C
Humidity: 48%
Barometer: 30.12 inHg , 1020 hPa
Clouds: Clear
Visibility: 10 miles , 16 km
2019/08/20 15:52 KAQW 201552Z AUTO 00000KT 10SM CLR 26/14 A3012 RMK AO2 SLP195 T02560139
 
KIZG - Fryeburg, Maine, USA
Distance from station: NNE 133mi, 214km
Updated: Tue, 20-Aug-2019 11:54am EDT
Clear
Clear
 Wind from varies
Wind: varies 5 mph , 7 km/h
Temperature: 81°F , 27°C
Heat Index: 81°F , 27°C
Dew Point: 59°F , 15°C
Humidity: 48%
Barometer: 30.08 inHg , 1018.6 hPa
Clouds: Clear
Visibility: 10 miles , 16 km
2019/08/20 15:54 KIZG 201554Z AUTO VRB04KT 10SM CLR 27/15 A3008 RMK AO2 SLP184 T02670150
KMWN - Mt Washington, New Hampshire, USA
Distance from station: NNE 146mi, 234km
Updated: Tue, 20-Aug-2019 11:48am EDT

 Wind from varies
Wind: varies 6 mph , 9 km/h
Visibility: 85 miles , 136 km
2019/08/20 15:48 KMWN 201548Z VRB05KT 85SM FEW/// FEW005 FEW200 13/04 RMK BBLO FEW E-SE
 
KBML - Berlin, New Hampshire, USA
Distance from station: NNE 160mi, 257km
Updated: Tue, 20-Aug-2019 11:52am EDT
Clear
Clear
 Wind from N
Wind: N 5 mph , 7 km/h
Temperature: 77°F , 25°C
Dew Point: 52°F , 11°C
Humidity: 42%
Barometer: 30.10 inHg , 1019.3 hPa
Clouds: Clear
Visibility: 10 miles , 16 km
2019/08/20 15:52 KBML 201552Z AUTO 36004KT 10SM CLR 25/11 A3010 RMK AO2 SLP189 T02500111